createdAt,value
2023-03-17T00:00:56.411Z,45.07
2023-03-17T00:03:29.689Z,43.75
2023-03-17T00:06:01.567Z,44.78
2023-03-17T00:08:33.860Z,46.09
2023-03-17T00:11:04.195Z,45.66
2023-03-17T00:13:35.839Z,44.61
2023-03-17T00:16:09.741Z,45.49
2023-03-17T00:18:40.149Z,46.53
2023-03-17T00:21:15.361Z,46.83
2023-03-17T00:23:52.229Z,45.01
2023-03-17T00:26:23.178Z,44.78
2023-03-17T00:28:54.763Z,45.46
2023-03-17T00:31:28.219Z,45.19
2023-03-17T00:33:58.734Z,44.72
2023-03-17T00:36:31.251Z,44.07
2023-03-17T00:39:02.384Z,45.90
2023-03-17T00:41:33.323Z,46.26
2023-03-17T00:44:03.706Z,44.97
2023-03-17T00:46:38.774Z,44.55
2023-03-17T00:51:46.462Z,45.31
2023-03-17T00:54:17.363Z,44.03
2023-03-17T00:56:48.372Z,44.29
2023-03-17T00:59:24.695Z,44.78
2023-03-17T01:01:57.498Z,45.94
2023-03-17T01:04:29.191Z,46.20
2023-03-17T01:07:00.778Z,45.34
2023-03-17T01:09:31.930Z,44.44
2023-03-17T01:12:03.214Z,45.11
2023-03-17T01:14:33.685Z,45.79
2023-03-17T01:17:08.295Z,45.46
2023-03-17T01:19:39.036Z,44.96
2023-03-17T01:22:10.004Z,44.39
2023-03-17T01:24:40.350Z,45.05
2023-03-17T01:27:10.780Z,45.16
2023-03-17T01:29:40.969Z,45.67
2023-03-17T01:32:13.316Z,46.51
2023-03-17T01:34:43.653Z,46.40
2023-03-17T01:37:13.952Z,46.05
2023-03-17T01:39:44.356Z,47.30
2023-03-17T01:42:15.556Z,46.74
2023-03-17T01:45:00.977Z,45.92
2023-03-17T01:47:33.657Z,47.65
2023-03-17T01:50:07.864Z,46.31
2023-03-17T01:52:40.009Z,47.14
2023-03-17T01:55:13.111Z,48.30
2023-03-17T01:57:45.392Z,48.50
2023-03-17T02:00:18.386Z,47.94
2023-03-17T02:02:52.485Z,46.96
2023-03-17T02:05:26.458Z,46.74
2023-03-17T02:07:56.638Z,47.17
2023-03-17T02:10:30.521Z,47.16
2023-03-17T02:13:06.088Z,47.08
2023-03-17T02:15:42.148Z,46.93
2023-03-17T02:18:14.985Z,48.71
2023-03-17T02:21:42.715Z,47.40
2023-03-17T02:24:19.934Z,47.18
2023-03-17T02:26:51.076Z,47.23
2023-03-17T02:29:24.317Z,48.81
2023-03-17T02:31:54.797Z,47.55
2023-03-17T02:34:24.802Z,47.78
2023-03-17T02:36:57.456Z,48.12
2023-03-17T02:39:28.288Z,47.59
2023-03-17T02:41:59.415Z,47.18
2023-03-17T02:44:29.225Z,47.46
2023-03-17T02:46:58.828Z,50.77
2023-03-17T02:49:29.741Z,48.38
2023-03-17T02:52:02.808Z,47.20
2023-03-17T02:54:34.481Z,46.85
2023-03-17T02:57:04.606Z,50.28
2023-03-17T02:59:34.824Z,47.78
2023-03-17T03:02:04.892Z,47.71
2023-03-17T03:04:35.044Z,47.86
2023-03-17T03:07:06.955Z,48.29
2023-03-17T03:09:37.255Z,48.03
2023-03-17T03:12:10.538Z,48.31
2023-03-17T03:14:41.358Z,48.89
2023-03-17T03:17:11.952Z,47.64
2023-03-17T03:19:42.312Z,48.05
2023-03-17T03:22:15.169Z,48.39
2023-03-17T03:24:45.843Z,48.25
2023-03-17T03:27:17.317Z,48.31
2023-03-17T03:29:47.815Z,47.62
2023-03-17T03:32:18.536Z,47.29
2023-03-17T03:34:48.433Z,47.09
2023-03-17T03:37:20.916Z,47.34
2023-03-17T03:39:51.889Z,48.96
2023-03-17T03:42:22.370Z,48.81
2023-03-17T03:44:53.072Z,48.94
2023-03-17T03:47:23.362Z,47.18
2023-03-17T03:49:52.793Z,47.40
2023-03-17T03:52:24.994Z,47.30
2023-03-17T03:54:56.630Z,47.10
2023-03-17T03:57:26.598Z,47.16
2023-03-17T03:59:57.764Z,48.03
2023-03-17T04:02:28.809Z,46.18
2023-03-17T04:04:59.036Z,46.84
2023-03-17T04:07:31.194Z,47.49
2023-03-17T04:10:01.572Z,47.16
2023-03-17T04:12:31.257Z,47.32
2023-03-17T04:15:01.924Z,48.50
2023-03-17T04:17:32.004Z,47.27
2023-03-17T04:20:01.602Z,48.93
2023-03-17T04:22:33.898Z,48.46
2023-03-17T04:25:04.301Z,47.72
2023-03-17T04:27:34.029Z,48.27
2023-03-17T04:30:04.348Z,50.73
2023-03-17T04:32:35.109Z,48.37
2023-03-17T04:35:06.198Z,48.55
2023-03-17T04:37:39.129Z,47.99
2023-03-17T04:40:12.525Z,48.76
2023-03-17T04:42:42.984Z,46.69
2023-03-17T04:45:17.262Z,47.53
2023-03-17T04:47:47.424Z,47.54
2023-03-17T04:50:18.700Z,47.34
2023-03-17T04:52:50.884Z,50.50
2023-03-17T04:55:21.668Z,49.11
2023-03-17T04:57:52.243Z,49.62
2023-03-17T05:00:22.588Z,50.06
2023-03-17T05:02:52.781Z,48.72
2023-03-17T05:05:23.382Z,49.06
2023-03-17T05:07:55.738Z,47.52
2023-03-17T05:10:26.024Z,47.93
2023-03-17T05:12:56.109Z,47.78
2023-03-17T05:15:28.160Z,48.94
2023-03-17T05:17:58.703Z,47.66
2023-03-17T05:20:29.269Z,49.72
2023-03-17T05:23:01.735Z,49.57
2023-03-17T05:25:31.760Z,50.06
2023-03-17T05:28:02.340Z,50.03
2023-03-17T05:30:33.852Z,49.95
2023-03-17T05:33:04.488Z,48.94
2023-03-17T05:35:34.828Z,48.46
2023-03-17T05:38:07.195Z,49.52
2023-03-17T05:40:37.412Z,49.77
2023-03-17T05:43:09.460Z,49.11
2023-03-17T05:45:40.603Z,48.48
2023-03-17T05:48:12.903Z,49.09
2023-03-17T05:50:44.114Z,50.72
2023-03-17T05:53:16.174Z,50.61
2023-03-17T05:55:47.166Z,48.67
2023-03-17T05:58:17.638Z,50.25
2023-03-17T06:00:48.078Z,51.74
2023-03-17T06:03:18.321Z,52.08
2023-03-17T06:05:48.338Z,49.32
2023-03-17T06:08:20.851Z,49.72
2023-03-17T06:10:50.786Z,50.59
2023-03-17T06:13:20.677Z,49.93
2023-03-17T06:15:52.339Z,49.54
2023-03-17T06:18:22.667Z,49.58
2023-03-17T06:20:53.406Z,48.24
2023-03-17T06:23:26.510Z,48.32
2023-03-17T06:25:57.284Z,47.56
2023-03-17T06:28:27.555Z,48.58
2023-03-17T06:30:58.621Z,47.59
2023-03-17T06:33:28.871Z,46.72
2023-03-17T06:36:00.533Z,47.93
2023-03-17T06:38:32.314Z,47.02
2023-03-17T06:41:03.789Z,46.09
2023-03-17T06:43:34.551Z,45.52
2023-03-17T06:46:05.208Z,45.71
2023-03-17T06:48:35.635Z,47.93
2023-03-17T06:51:06.275Z,47.91
2023-03-17T06:53:37.992Z,47.74
2023-03-17T06:56:20.031Z,48.98
2023-03-17T06:58:57.305Z,49.00
2023-03-17T07:01:28.027Z,48.96
2023-03-17T07:03:58.114Z,47.69
2023-03-17T07:06:28.750Z,48.24
2023-03-17T07:09:02.275Z,46.33
2023-03-17T07:11:33.423Z,46.69
2023-03-17T07:14:03.049Z,46.03
2023-03-17T07:16:33.521Z,46.87
2023-03-17T07:19:04.032Z,46.96
2023-03-17T07:21:34.137Z,47.34
2023-03-17T07:24:07.053Z,46.91
2023-03-17T07:26:37.689Z,45.26
2023-03-17T07:29:08.534Z,45.72
2023-03-17T07:31:42.502Z,45.05
2023-03-17T07:34:13.767Z,44.29
2023-03-17T07:36:43.936Z,44.69
2023-03-17T07:39:16.021Z,44.41
2023-03-17T07:41:47.272Z,44.28
2023-03-17T07:44:17.905Z,44.09
2023-03-17T07:46:48.646Z,44.66
2023-03-17T07:49:25.157Z,44.16
2023-03-17T07:52:04.080Z,46.46
2023-03-17T07:54:36.467Z,45.41
2023-03-17T07:57:07.927Z,45.24
2023-03-17T07:59:40.323Z,44.38
2023-03-17T08:02:15.967Z,44.55
2023-03-17T08:04:46.278Z,44.25
2023-03-17T08:07:16.635Z,44.24
2023-03-17T08:09:47.980Z,43.72
2023-03-17T08:12:18.715Z,44.32
2023-03-17T08:14:48.958Z,44.01
2023-03-17T08:17:19.924Z,43.38
2023-03-17T08:19:51.217Z,44.01
2023-03-17T08:22:21.539Z,43.25
2023-03-17T08:24:54.049Z,43.61
2023-03-17T08:27:24.813Z,43.14
2023-03-17T08:29:56.107Z,43.03
2023-03-17T08:32:26.551Z,42.69
2023-03-17T08:34:58.376Z,42.63
2023-03-17T08:37:29.301Z,41.53
2023-03-17T08:40:01.535Z,42.53
2023-03-17T08:42:32.478Z,42.99
2023-03-17T08:45:02.282Z,43.32
2023-03-17T08:47:35.557Z,43.33
2023-03-17T08:50:07.723Z,42.37
2023-03-17T08:52:38.673Z,42.87
2023-03-17T08:55:11.549Z,42.79
2023-03-17T08:57:43.865Z,43.02
2023-03-17T09:00:16.807Z,42.74
2023-03-17T09:02:47.305Z,41.99
2023-03-17T09:05:19.889Z,43.61
2023-03-17T09:07:51.116Z,41.64
2023-03-17T09:10:23.951Z,41.72
2023-03-17T09:12:54.766Z,41.93
2023-03-17T09:15:24.986Z,41.30
2023-03-17T09:17:55.887Z,41.84
2023-03-17T09:20:26.568Z,41.61
2023-03-17T09:22:58.388Z,40.67
2023-03-17T09:25:30.479Z,40.44
2023-03-17T09:28:01.418Z,40.42
2023-03-17T09:30:31.113Z,40.52
2023-03-17T09:33:02.891Z,42.33
2023-03-17T09:35:33.398Z,40.22
2023-03-17T09:38:03.828Z,39.36
2023-03-17T09:40:39.100Z,40.30
2023-03-17T09:43:17.447Z,39.29
2023-03-17T09:45:48.335Z,38.84
2023-03-17T09:48:35.022Z,39.24
2023-03-17T09:51:06.907Z,39.22
2023-03-17T09:53:41.646Z,38.31
2023-03-17T09:56:15.977Z,38.72
2023-03-17T09:58:52.112Z,37.55
2023-03-17T10:01:23.395Z,38.45
2023-03-17T10:03:54.152Z,37.48
2023-03-17T10:06:35.297Z,37.44
2023-03-17T10:09:15.058Z,39.11
2023-03-17T10:11:49.855Z,40.19
2023-03-17T10:14:38.938Z,39.17
2023-03-17T10:17:18.426Z,37.57
2023-03-17T10:19:55.970Z,37.15
2023-03-17T10:22:30.556Z,37.26
2023-03-17T10:25:04.407Z,36.40
2023-03-17T10:27:38.464Z,36.79
2023-03-17T10:30:17.700Z,37.81
2023-03-17T10:32:48.823Z,37.47
2023-03-17T10:35:19.883Z,35.67
2023-03-17T10:37:51.138Z,34.97
2023-03-17T10:40:27.145Z,35.72
2023-03-17T10:43:08.739Z,35.56
2023-03-17T10:45:44.059Z,35.79
2023-03-17T10:48:21.133Z,35.58
2023-03-17T10:50:52.863Z,35.44
2023-03-17T10:53:29.068Z,35.00
2023-03-17T10:56:08.821Z,36.98
2023-03-17T10:58:45.369Z,35.35
2023-03-17T11:01:21.205Z,33.50
2023-03-17T11:03:52.307Z,33.42
2023-03-17T11:06:29.099Z,31.40
2023-03-17T11:09:00.520Z,31.77
2023-03-17T11:11:34.110Z,34.45
2023-03-17T11:14:07.698Z,33.69
2023-03-17T11:16:41.469Z,33.89
2023-03-17T11:19:17.597Z,31.70
2023-03-17T11:21:55.800Z,30.87
2023-03-17T11:24:32.223Z,31.21
2023-03-17T11:27:08.787Z,32.53
2023-03-17T11:29:51.254Z,29.14
2023-03-17T11:32:29.926Z,29.01
2023-03-17T11:35:13.022Z,29.19
2023-03-17T11:37:58.413Z,29.29
2023-03-17T11:40:34.324Z,28.17
2023-03-17T11:43:18.180Z,28.29
2023-03-17T11:45:53.357Z,28.03
2023-03-17T11:48:31.169Z,27.94
2023-03-17T11:51:06.977Z,28.04
2023-03-17T11:53:52.309Z,26.19
2023-03-17T11:56:26.222Z,27.52
2023-03-17T11:59:01.060Z,29.32
2023-03-17T12:01:37.943Z,28.82
2023-03-17T12:04:17.402Z,25.84
2023-03-17T12:06:50.878Z,26.14
2023-03-17T12:09:26.973Z,26.09
2023-03-17T12:11:59.397Z,26.74
2023-03-17T12:14:33.140Z,26.96
2023-03-17T12:17:09.565Z,26.19
2023-03-17T12:19:43.895Z,26.98
2023-03-17T12:22:26.654Z,28.62
2023-03-17T12:25:08.919Z,26.61
2023-03-17T12:27:44.162Z,27.24
2023-03-17T12:30:23.664Z,27.53
2023-03-17T12:33:01.682Z,28.06
2023-03-17T12:35:35.236Z,25.39
2023-03-17T12:38:10.156Z,27.62
2023-03-17T12:40:49.145Z,28.15
2023-03-17T12:43:38.942Z,24.72
2023-03-17T12:46:35.310Z,25.63
2023-03-17T12:49:31.667Z,25.76
2023-03-17T12:52:23.744Z,26.41
2023-03-17T12:54:55.100Z,26.71
2023-03-17T12:57:29.393Z,26.83
2023-03-17T13:00:03.275Z,27.32
2023-03-17T13:02:39.474Z,26.77
2023-03-17T13:05:16.864Z,26.58
2023-03-17T13:07:53.902Z,25.68
2023-03-17T13:10:42.102Z,25.14
2023-03-17T13:13:23.834Z,27.15
2023-03-17T13:16:00.142Z,26.78
2023-03-17T13:18:50.182Z,26.31
2023-03-17T13:21:27.597Z,25.10
2023-03-17T13:24:00.747Z,24.86
2023-03-17T13:26:57.301Z,25.56
2023-03-17T13:29:39.809Z,26.51
2023-03-17T13:32:35.886Z,26.76
2023-03-17T13:35:22.613Z,25.92
2023-03-17T13:38:14.147Z,25.17
2023-03-17T13:40:52.927Z,24.33
2023-03-17T13:43:50.432Z,24.85
2023-03-17T13:46:29.189Z,22.95
2023-03-17T13:49:01.547Z,22.26
2023-03-17T13:51:35.525Z,22.91
2023-03-17T13:54:23.643Z,23.11
2023-03-17T13:56:55.566Z,23.42
2023-03-17T13:59:49.220Z,22.55
2023-03-17T14:02:21.958Z,22.41
2023-03-17T14:04:55.184Z,23.18
2023-03-17T14:07:27.677Z,22.76
2023-03-17T14:10:05.881Z,22.99
2023-03-17T14:12:42.301Z,23.44
2023-03-17T14:15:19.972Z,23.87
2023-03-17T14:17:56.184Z,23.57
2023-03-17T14:20:28.304Z,23.62
2023-03-17T14:23:02.355Z,23.07
2023-03-17T14:25:39.962Z,23.66
2023-03-17T14:28:16.970Z,23.51
2023-03-17T14:30:55.421Z,24.62
2023-03-17T14:33:27.939Z,25.84
2023-03-17T14:36:00.194Z,25.00
2023-03-17T14:38:32.596Z,25.62
2023-03-17T14:41:06.915Z,26.80
2023-03-17T14:43:40.447Z,25.08
2023-03-17T14:46:14.997Z,25.41
2023-03-17T14:48:49.197Z,25.34
2023-03-17T14:51:27.417Z,25.17
2023-03-17T14:54:00.867Z,25.33
2023-03-17T14:56:39.363Z,25.26
2023-03-17T14:59:17.400Z,25.83
2023-03-17T15:01:49.947Z,26.04
2023-03-17T15:04:22.323Z,26.85
2023-03-17T15:06:53.871Z,26.81
2023-03-17T15:09:29.136Z,26.91
2023-03-17T15:12:07.654Z,26.43
2023-03-17T15:14:40.236Z,26.88
2023-03-17T15:17:19.155Z,27.16
2023-03-17T15:19:52.300Z,26.97
2023-03-17T15:22:27.075Z,27.41
2023-03-17T15:25:06.255Z,27.34
2023-03-17T15:27:38.444Z,26.40
2023-03-17T15:30:10.475Z,26.92
2023-03-17T15:32:41.050Z,27.48
2023-03-17T15:35:14.579Z,27.73
2023-03-17T15:37:45.545Z,27.43
2023-03-17T15:40:20.183Z,26.55
2023-03-17T15:42:52.813Z,27.98
2023-03-17T15:45:24.072Z,28.08
2023-03-17T15:47:55.601Z,29.01
2023-03-17T15:50:29.690Z,29.66
2023-03-17T15:53:00.306Z,28.54
2023-03-17T15:55:32.668Z,29.06
2023-03-17T15:58:09.247Z,30.61
2023-03-17T16:00:39.852Z,28.75
2023-03-17T16:03:18.386Z,28.31
2023-03-17T16:05:50.235Z,29.88
2023-03-17T16:08:20.769Z,29.76
2023-03-17T16:10:53.894Z,28.63
2023-03-17T16:13:25.801Z,29.86
2023-03-17T16:15:57.585Z,29.64
2023-03-17T16:18:33.342Z,29.60
2023-03-17T16:21:04.314Z,30.11
2023-03-17T16:23:37.352Z,29.59
2023-03-17T16:26:15.442Z,29.31
2023-03-17T16:28:49.764Z,29.80
2023-03-17T16:31:25.861Z,29.87
2023-03-17T16:33:57.385Z,29.92
2023-03-17T16:36:27.957Z,29.89
2023-03-17T16:38:59.522Z,30.54
2023-03-17T16:41:31.684Z,30.49
2023-03-17T16:44:05.612Z,30.49
2023-03-17T16:46:36.936Z,30.17
2023-03-17T16:49:07.366Z,30.95
2023-03-17T16:51:37.787Z,30.98
2023-03-17T16:54:08.417Z,31.29
2023-03-17T16:56:39.394Z,32.19
2023-03-17T16:59:18.272Z,32.56
2023-03-17T17:01:49.924Z,32.82
2023-03-17T17:04:24.427Z,33.12
2023-03-17T17:06:57.249Z,33.80
2023-03-17T17:09:27.657Z,33.63
2023-03-17T17:11:59.614Z,34.22
2023-03-17T17:14:31.911Z,34.07
2023-03-17T17:17:03.394Z,33.95
2023-03-17T17:19:34.758Z,34.52
2023-03-17T17:22:09.366Z,34.80
2023-03-17T17:24:39.767Z,35.18
2023-03-17T17:27:10.598Z,35.33
2023-03-17T17:29:42.969Z,35.44
2023-03-17T17:32:13.980Z,36.04
2023-03-17T17:34:44.058Z,36.41
2023-03-17T17:37:15.449Z,36.38
2023-03-17T17:39:48.026Z,36.45
2023-03-17T17:42:19.916Z,36.67
2023-03-17T17:44:53.208Z,36.60
2023-03-17T17:47:24.511Z,36.42
2023-03-17T17:49:56.554Z,36.40
2023-03-17T17:52:27.272Z,37.02
2023-03-17T17:54:57.399Z,37.06
2023-03-17T17:57:31.010Z,36.33
2023-03-17T18:00:03.359Z,36.86
2023-03-17T18:02:33.922Z,37.83
2023-03-17T18:05:06.263Z,37.04
2023-03-17T18:07:37.513Z,38.26
2023-03-17T18:10:09.303Z,37.33
2023-03-17T18:12:40.036Z,38.06
2023-03-17T18:15:14.553Z,38.29
2023-03-17T18:17:44.993Z,39.08
2023-03-17T18:20:18.275Z,38.80
2023-03-17T18:22:48.597Z,39.38
2023-03-17T18:25:19.411Z,39.10
2023-03-17T18:27:51.598Z,40.15
2023-03-17T18:30:29.565Z,39.19
2023-03-17T18:33:02.973Z,39.67
2023-03-17T18:35:33.278Z,40.20
2023-03-17T18:38:04.524Z,39.62
2023-03-17T18:40:35.059Z,39.92
2023-03-17T18:43:05.564Z,40.03
2023-03-17T18:45:36.998Z,40.95
2023-03-17T18:48:07.903Z,40.46
2023-03-17T18:50:40.606Z,40.59
2023-03-17T18:53:10.786Z,39.77
2023-03-17T18:55:42.030Z,39.37
2023-03-17T18:58:13.777Z,39.76
2023-03-17T19:00:48.333Z,40.45
2023-03-17T19:03:19.651Z,40.84
2023-03-17T19:05:49.918Z,40.20
2023-03-17T19:08:21.901Z,41.38
2023-03-17T19:10:52.816Z,41.15
2023-03-17T19:13:24.156Z,40.79
2023-03-17T19:15:57.544Z,40.48
2023-03-17T19:18:29.515Z,41.27
2023-03-17T19:20:59.847Z,40.83
2023-03-17T19:23:30.108Z,40.25
2023-03-17T19:26:01.088Z,40.32
2023-03-17T19:28:32.515Z,40.21
2023-03-17T19:31:05.896Z,41.41
2023-03-17T19:33:38.519Z,41.44
2023-03-17T19:36:11.793Z,41.04
2023-03-17T19:38:42.655Z,41.35
2023-03-17T19:41:13.854Z,40.96
2023-03-17T19:43:44.166Z,40.57
2023-03-17T19:46:17.991Z,41.87
2023-03-17T19:48:48.724Z,42.69
2023-03-17T19:51:20.432Z,42.54
2023-03-17T19:53:51.448Z,42.80
2023-03-17T19:56:26.322Z,42.29
2023-03-17T19:59:00.758Z,41.79
2023-03-17T20:01:38.332Z,41.75
2023-03-17T20:04:10.460Z,41.94
2023-03-17T20:06:40.577Z,41.46
2023-03-17T20:09:13.022Z,42.07
2023-03-17T20:11:44.570Z,42.31
2023-03-17T20:14:15.982Z,42.69
2023-03-17T20:16:49.235Z,42.57
2023-03-17T20:19:21.186Z,42.47
2023-03-17T20:21:51.319Z,42.68
2023-03-17T20:24:21.392Z,41.46
2023-03-17T20:26:54.393Z,42.85
2023-03-17T20:29:26.912Z,43.25
2023-03-17T20:31:59.110Z,43.39
2023-03-17T20:34:32.272Z,43.04
2023-03-17T20:37:03.203Z,42.75
2023-03-17T20:39:34.858Z,43.46
2023-03-17T20:42:10.321Z,42.23
2023-03-17T20:44:44.109Z,43.13
2023-03-17T20:47:16.183Z,42.82
2023-03-17T20:49:48.567Z,43.56
2023-03-17T20:52:20.409Z,42.13
2023-03-17T20:54:51.395Z,43.20
2023-03-17T20:57:25.346Z,43.49
2023-03-17T20:59:59.068Z,43.26
2023-03-17T21:02:31.531Z,43.12
2023-03-17T21:05:02.140Z,43.91
2023-03-17T21:07:32.791Z,44.14
2023-03-17T21:10:03.485Z,43.69
2023-03-17T21:12:33.374Z,43.48
2023-03-17T21:15:04.362Z,43.99
2023-03-17T21:17:36.813Z,44.32
2023-03-17T21:20:10.130Z,43.82
2023-03-17T21:22:41.629Z,43.43
2023-03-17T21:25:13.977Z,43.96
2023-03-17T21:27:46.059Z,44.29
2023-03-17T21:30:21.989Z,43.67
2023-03-17T21:32:54.869Z,44.62
2023-03-17T21:35:28.888Z,44.16
2023-03-17T21:38:02.322Z,43.35
2023-03-17T21:40:34.401Z,43.64
2023-03-17T21:43:06.276Z,44.86
2023-03-17T21:45:37.196Z,43.86
2023-03-17T21:48:08.545Z,44.53
2023-03-17T21:50:38.855Z,44.46
2023-03-17T21:53:09.789Z,45.17
2023-03-17T21:55:40.596Z,44.32
2023-03-17T21:58:12.433Z,44.50
2023-03-17T22:00:45.937Z,43.75
2023-03-17T22:03:19.220Z,43.91
2023-03-17T22:05:51.147Z,44.37
2023-03-17T22:08:22.021Z,44.31
2023-03-17T22:10:52.553Z,43.73
2023-03-17T22:13:23.299Z,45.25
2023-03-17T22:15:54.632Z,45.09
2023-03-17T22:18:27.240Z,44.05
2023-03-17T22:20:58.157Z,44.57
2023-03-17T22:23:29.798Z,44.27
2023-03-17T22:26:01.004Z,44.67
2023-03-17T22:28:32.717Z,44.49
2023-03-17T22:31:06.990Z,45.89
2023-03-17T22:33:38.757Z,45.41
2023-03-17T22:36:12.300Z,45.41
2023-03-17T22:38:42.829Z,45.42
2023-03-17T22:41:16.740Z,45.83
2023-03-17T22:43:47.669Z,46.34
2023-03-17T22:46:19.392Z,46.57
2023-03-17T22:48:51.296Z,47.08
2023-03-17T22:51:24.037Z,46.25
2023-03-17T22:53:54.573Z,45.88
2023-03-17T22:56:25.292Z,46.74
2023-03-17T22:58:56.526Z,46.87
2023-03-17T23:01:27.882Z,46.22
2023-03-17T23:04:00.752Z,47.59
2023-03-17T23:06:35.671Z,46.78
2023-03-17T23:09:06.935Z,48.67
2023-03-17T23:11:37.729Z,48.15
2023-03-17T23:14:08.604Z,47.52
2023-03-17T23:16:38.590Z,48.25
2023-03-17T23:19:10.511Z,48.29
2023-03-17T23:21:41.526Z,47.96
2023-03-17T23:24:12.215Z,47.19
2023-03-17T23:26:42.810Z,47.70
2023-03-17T23:29:13.948Z,46.64
2023-03-17T23:31:44.811Z,45.99
2023-03-17T23:34:17.214Z,46.35
2023-03-17T23:36:47.956Z,46.20
2023-03-17T23:39:18.377Z,45.99
2023-03-17T23:41:48.714Z,46.55
2023-03-17T23:44:18.707Z,47.80
2023-03-17T23:46:48.501Z,47.65
2023-03-17T23:49:21.055Z,46.34
2023-03-17T23:51:51.004Z,46.12
2023-03-17T23:54:21.530Z,47.50
2023-03-17T23:56:52.948Z,47.34
2023-03-17T23:59:24.026Z,46.91
